Time;durP1;ratioP1;P1;durP2;ratioP2;P2;SDS_P1;SDS_P2;PMS_P1;PMS_P2;Temp;Humidity;BMP_temperature;BMP_pressure;BME280_temperature;BME280_humidity;BME280_pressure;Samples;Min_cycle;Max_cycle;Signal;HPM_P1;HPM_P2
2023/07/10 00:01:27;;;;;;;1.13;0.80;;;28.30;46.50;;;;;;5015413;28;20377;-72
2023/07/10 00:03:53;;;;;;;1.08;0.77;;;28.30;46.50;;;;;;5014818;28;20033;-73
2023/07/10 00:06:20;;;;;;;0.80;0.80;;;28.30;46.50;;;;;;5015043;28;20088;-72
2023/07/10 00:08:47;;;;;;;1.88;0.85;;;28.20;46.50;;;;;;5015138;28;20034;-72
2023/07/10 00:11:17;;;;;;;1.95;0.98;;;28.30;47.20;;;;;;5015383;28;20487;-72
2023/07/10 00:13:44;;;;;;;;;;;28.20;46.50;;;;;;5014121;28;20057;-73
2023/07/10 00:16:16;;;;;;;1.13;0.90;;;28.30;46.60;;;;;;5015202;28;19940;-73
2023/07/10 00:18:43;;;;;;;1.50;0.75;;;28.20;46.50;;;;;;5015232;28;20366;-73
2023/07/10 00:21:09;;;;;;;1.15;0.77;;;28.20;46.60;;;;;;5015235;28;20131;-73
2023/07/10 00:23:35;;;;;;;1.83;1.10;;;28.20;46.50;;;;;;5014971;28;20084;-73
2023/07/10 00:26:01;;;;;;;3.05;0.73;;;28.20;46.60;;;;;;5015145;28;20022;-73
2023/07/10 00:28:27;;;;;;;0.77;0.65;;;28.20;46.70;;;;;;5014848;28;20052;-73
2023/07/10 00:30:53;;;;;;;1.25;0.90;;;28.20;46.70;;;;;;5014529;28;20280;-73
2023/07/10 00:33:20;;;;;;;1.55;1.08;;;28.10;46.60;;;;;;5014506;28;20592;-73
2023/07/10 00:35:46;;;;;;;1.63;0.80;;;28.20;46.70;;;;;;5014661;28;20022;-73
2023/07/10 00:38:19;;;;;;;0.90;0.70;;;28.10;46.60;;;;;;5014416;28;20528;-73
2023/07/10 00:40:46;;;;;;;1.60;0.80;;;28.10;46.60;;;;;;5014521;28;20416;-73
2023/07/10 00:43:36;;;;;;;1.20;0.90;;;28.10;46.60;;;;;;5014474;28;20030;-73
2023/07/10 00:46:33;;;;;;;1.35;0.75;;;28.10;46.60;;;;;;5014751;28;20025;-76
2023/07/10 00:49:22;;;;;;;1.55;0.80;;;28.10;46.60;;;;;;5013677;28;20497;-75
2023/07/10 00:52:03;;;;;;;1.77;0.93;;;28.10;46.70;;;;;;5013330;28;20128;-75
2023/07/10 00:54:36;;;;;;;1.30;0.80;;;28.00;46.70;;;;;;5013029;28;20033;-76
2023/07/10 00:57:05;;;;;;;1.90;0.88;;;28.00;46.60;;;;;;5014481;28;20061;-75
2023/07/10 00:59:40;;;;;;;0.82;0.73;;;28.00;46.20;;;;;;5013171;28;20095;-75
2023/07/10 01:02:15;;;;;;;0.88;0.70;;;28.00;46.80;;;;;;4997254;28;20444;-76
2023/07/10 01:04:44;;;;;;;2.47;1.00;;;28.00;46.80;;;;;;5014048;28;20282;-76
2023/07/10 01:07:14;;;;;;;1.88;1.00;;;27.90;46.70;;;;;;4997006;28;20101;-76
2023/07/10 01:09:44;;;;;;;1.10;0.90;;;27.90;46.70;;;;;;5012723;28;20139;-75
2023/07/10 01:12:11;;;;;;;1.30;0.75;;;27.90;46.70;;;;;;5012710;28;20026;-75
2023/07/10 01:14:37;;;;;;;1.00;0.70;;;27.90;46.70;;;;;;4996429;28;20036;-75
2023/07/10 01:17:05;;;;;;;0.88;0.60;;;27.90;46.70;;;;;;4996407;28;20493;-75
2023/07/10 01:19:33;;;;;;;1.33;0.73;;;27.90;46.70;;;;;;5012578;28;20255;-75
2023/07/10 01:22:00;;;;;;;1.55;0.70;;;28.10;64.10;;;;;;5012419;28;20053;-75
2023/07/10 01:24:26;;;;;;;1.35;0.73;;;27.90;46.80;;;;;;4996317;28;20088;-75
2023/07/10 01:26:55;;;;;;;1.27;0.70;;;27.90;46.60;;;;;;5012322;28;20045;-75
2023/07/10 01:29:43;;;;;;;0.82;0.63;;;27.90;46.70;;;;;;4996614;28;20059;-75
2023/07/10 01:32:14;;;;;;;0.93;0.68;;;27.90;47.40;;;;;;5012492;28;20477;-76
2023/07/10 01:34:45;;;;;;;1.00;0.80;;;27.80;46.70;;;;;;5012562;28;20033;-76
2023/07/10 01:37:12;;;;;;;2.08;0.77;;;27.80;46.70;;;;;;5012192;28;20042;-74
2023/07/10 01:39:42;;;;;;;1.05;0.80;;;27.80;46.70;;;;;;5013353;28;20014;-75
2023/07/10 01:42:09;;;;;;;0.93;0.75;;;27.80;46.70;;;;;;5013423;28;20026;-75
2023/07/10 01:44:40;;;;;;;0.88;0.73;;;27.80;47.40;;;;;;5013100;28;20113;-75
2023/07/10 01:47:09;;;;;;;1.80;0.98;;;27.80;46.70;;;;;;5013563;28;20026;-75
2023/07/10 01:49:42;;;;;;;1.05;0.70;;;27.80;46.80;;;;;;5013612;28;20446;-75
2023/07/10 01:52:11;;;;;;;1.73;0.88;;;27.80;46.80;;;;;;5013079;28;20030;-75
2023/07/10 01:54:38;;;;;;;1.85;1.05;;;27.70;46.70;;;;;;5013469;28;20026;-75
2023/07/10 01:57:06;;;;;;;0.73;0.65;;;27.70;46.70;;;;;;5013125;28;20488;-75
2023/07/10 01:59:32;;;;;;;1.88;1.02;;;27.70;46.70;;;;;;5012393;28;20022;-75
2023/07/10 02:01:59;;;;;;;1.25;0.70;;;27.90;64.20;;;;;;5012961;28;20099;-75
2023/07/10 02:04:26;;;;;;;1.20;0.98;;;27.70;46.80;;;;;;5013024;28;20119;-75
2023/07/10 02:06:55;;;;;;;0.98;0.80;;;27.70;46.80;;;;;;5013206;28;20030;-76
2023/07/10 02:09:23;;;;;;;1.25;0.77;;;27.70;46.80;;;;;;5012907;28;20104;-76
2023/07/10 02:11:49;;;;;;;0.98;0.63;;;27.70;46.80;;;;;;5013116;28;20087;-75
2023/07/10 02:14:14;;;;;;;1.30;0.75;;;27.60;46.80;;;;;;5012844;28;20104;-75
2023/07/10 02:16:40;;;;;;;2.17;0.60;;;27.60;46.80;;;;;;5012654;28;20101;-73
2023/07/10 02:19:07;;;;;;;0.90;0.70;;;27.60;46.80;;;;;;5012693;28;20157;-74
2023/07/10 02:21:32;;;;;;;0.75;0.75;;;27.60;46.90;;;;;;5012663;28;20053;-74
2023/07/10 02:23:59;;;;;;;1.20;0.70;;;27.60;46.80;;;;;;5012725;28;20041;-74
2023/07/10 02:26:27;;;;;;;1.58;0.70;;;27.60;46.90;;;;;;5012604;28;20017;-74
2023/07/10 02:28:53;;;;;;;0.82;0.60;;;27.60;46.90;;;;;;5012531;28;20030;-74
2023/07/10 02:31:20;;;;;;;0.60;0.60;;;27.60;46.80;;;;;;5012286;28;20022;-73
2023/07/10 02:33:46;;;;;;;1.67;0.80;;;27.50;46.80;;;;;;5012203;28;20026;-74
2023/07/10 02:36:13;;;;;;;1.20;0.75;;;27.50;46.80;;;;;;5012561;28;20022;-76
2023/07/10 02:38:39;;;;;;;0.82;0.60;;;27.50;46.80;;;;;;5012262;28;20030;-76
2023/07/10 02:41:05;;;;;;;1.67;0.70;;;27.50;46.90;;;;;;5012203;28;20469;-76
2023/07/10 02:43:31;;;;;;;1.33;0.85;;;27.50;46.90;;;;;;5012444;28;20042;-75
2023/07/10 02:45:57;;;;;;;2.42;0.80;;;27.50;46.90;;;;;;5011211;28;20042;-76
2023/07/10 02:48:24;;;;;;;1.02;0.75;;;27.50;46.90;;;;;;5012463;28;20113;-76
2023/07/10 02:50:50;;;;;;;1.95;1.00;;;27.40;46.90;;;;;;5012201;28;20057;-76
2023/07/10 02:53:16;;;;;;;1.08;0.70;;;27.40;46.90;;;;;;5012056;28;20511;-73
2023/07/10 02:55:43;;;;;;;1.58;0.70;;;27.40;46.90;;;;;;5012520;28;20393;-76
2023/07/10 02:58:09;;;;;;;3.00;0.80;;;27.40;46.90;;;;;;5012317;28;20033;-76
2023/07/10 03:00:35;;;;;;;1.15;0.65;;;27.40;46.90;;;;;;5010823;28;20465;-75
2023/07/10 03:03:01;;;;;;;1.00;0.60;;;27.40;47.00;;;;;;5012221;28;20444;-76
2023/07/10 03:05:27;;;;;;;0.98;0.75;;;27.40;47.60;;;;;;5012053;28;20038;-75
2023/07/10 03:07:53;;;;;;;1.63;0.80;;;27.40;47.00;;;;;;5012445;28;20107;-75
2023/07/10 03:10:21;;;;;;;2.08;0.60;;;27.30;47.00;;;;;;5012052;28;20057;-76
2023/07/10 03:12:47;;;;;;;1.88;0.82;;;27.30;46.90;;;;;;5012171;28;20079;-75
2023/07/10 03:15:13;;;;;;;1.00;0.60;;;27.30;47.00;;;;;;5012318;28;20463;-76
2023/07/10 03:17:41;;;;;;;0.93;0.68;;;27.30;47.00;;;;;;5012329;28;20492;-76
2023/07/10 03:20:09;;;;;;;1.05;0.70;;;27.30;47.00;;;;;;5011994;28;20176;-76
2023/07/10 03:22:35;;;;;;;1.45;0.70;;;27.30;47.00;;;;;;5012058;28;20026;-76
2023/07/10 03:25:01;;;;;;;1.45;0.65;;;27.30;47.00;;;;;;5011979;28;20036;-75
2023/07/10 03:27:29;;;;;;;0.50;0.38;;;27.30;47.00;;;;;;5011767;28;20022;-76
2023/07/10 03:29:55;;;;;;;0.70;0.55;;;27.20;47.00;;;;;;5012227;28;20029;-76
2023/07/10 03:32:21;;;;;;;1.23;0.60;;;27.20;47.00;;;;;;5010698;28;20045;-76
2023/07/10 03:34:51;;;;;;;1.23;0.60;;;27.20;47.00;;;;;;5012035;28;20167;-76
2023/07/10 03:37:17;;;;;;;1.20;0.80;;;27.20;47.10;;;;;;5011696;28;20014;-76
2023/07/10 03:39:43;;;;;;;1.40;0.70;;;27.20;47.00;;;;;;5011697;28;20049;-75
2023/07/10 03:42:09;;;;;;;1.23;0.50;;;27.20;47.00;;;;;;5011675;28;20037;-75
2023/07/10 03:44:35;;;;;;;1.23;0.82;;;27.20;47.10;;;;;;5011540;28;20038;-75
2023/07/10 03:47:01;;;;;;;2.05;0.77;;;27.10;47.00;;;;;;5011479;28;20076;-75
2023/07/10 03:49:26;;;;;;;2.35;0.77;;;27.10;47.00;;;;;;5011890;28;20476;-75
2023/07/10 03:51:52;;;;;;;1.33;0.63;;;27.10;47.10;;;;;;5011599;28;20030;-75
2023/07/10 03:54:18;;;;;;;1.42;0.68;;;27.10;47.10;;;;;;5011457;28;20484;-75
2023/07/10 03:56:43;;;;;;;1.80;0.80;;;27.10;47.10;;;;;;5011511;28;20033;-75
2023/07/10 03:59:09;;;;;;;1.77;0.90;;;27.10;47.10;;;;;;5011609;28;20026;-75
2023/07/10 04:01:36;;;;;;;1.33;0.77;;;26.70;64.40;;;;;;5312770;23;20033;-75
2023/07/10 04:07:50;;;;;;;0.98;0.70;;;27.10;47.20;;;;;;5011389;28;20125;-75
